Time;durP1;ratioP1;P1;durP2;ratioP2;P2;SDS_P1;SDS_P2;PMS_P1;PMS_P2;Temp;Humidity;BMP_temperature;BMP_pressure;BME280_temperature;BME280_humidity;BME280_pressure;Samples;Min_cycle;Max_cycle;Signal;HPM_P1;HPM_P2
2024/01/16 00:01:43;;;;;;;2.60;1.33;;;;;;;;;;5075816;28;20410;-56
2024/01/16 00:04:10;;;;;;;3.75;1.40;;;;;;;;;;5089524;28;20760;-54
2024/01/16 00:06:39;;;;;;;5.45;1.70;;;;;;;;;;5080846;28;20388;-54
2024/01/16 00:09:05;;;;;;;3.17;1.40;;;;;;;;;;5089208;28;20988;-54
2024/01/16 00:11:31;;;;;;;6.82;1.70;;;;;;;;;;5088209;28;20394;-54
2024/01/16 00:13:57;;;;;;;5.77;1.57;;;;;;;;;;5084915;28;20414;-54
2024/01/16 00:16:23;;;;;;;3.57;1.30;;;;;;;;;;5088009;28;20813;-52
2024/01/16 00:18:49;;;;;;;6.18;1.33;;;;;;;;;;5066395;28;20417;-52
2024/01/16 00:21:15;;;;;;;4.03;1.50;;;;;;;;;;5088076;28;20390;-51
2024/01/16 00:23:41;;;;;;;5.40;1.30;;;;;;;;;;5089897;28;20374;-55
2024/01/16 00:26:07;;;;;;;4.05;1.23;;;;;;;;;;5088230;28;20402;-54
2024/01/16 00:28:33;;;;;;;7.95;1.55;;;;;;;;;;5083268;28;20859;-54
2024/01/16 00:30:59;;;;;;;3.60;1.70;;;;;;;;;;5086405;28;20458;-54
2024/01/16 00:33:27;;;;;;;3.40;1.40;;;;;;;;;;5084868;28;21152;-54
2024/01/16 00:35:53;;;;;;;4.00;1.40;;;;;;;;;;5084713;28;20937;-53
2024/01/16 00:38:19;;;;;;;4.10;1.70;;;;;;;;;;5087266;28;20409;-54
2024/01/16 00:40:46;;;;;;;5.27;1.70;;;;;;;;;;5089334;28;20386;-55
2024/01/16 00:43:12;;;;;;;4.17;1.40;;;;;;;;;;5077187;28;20410;-53
2024/01/16 00:45:40;;;;;;;2.72;1.27;;;;;;;;;;5089088;28;20398;-55
2024/01/16 00:48:06;;;;;;;3.40;1.40;;;;;;;;;;5089541;28;20397;-54
2024/01/16 00:50:33;;;;;;;3.47;1.27;;;;;;;;;;5090250;28;20410;-54
2024/01/16 00:52:59;;;;;;;3.23;1.20;;;;;;;;;;5088259;28;20398;-56
2024/01/16 00:55:24;;;;;;;2.47;1.20;;;;;;;;;;5089131;28;20711;-52
2024/01/16 00:57:52;;;;;;;6.70;1.37;;;;;;;;;;5083026;28;20763;-52
2024/01/16 01:00:18;;;;;;;4.45;1.38;;;;;;;;;;5089915;28;20378;-55
2024/01/16 01:02:44;;;;;;;2.58;1.10;;;;;;;;;;5089959;28;20420;-55
2024/01/16 01:05:10;;;;;;;2.67;1.27;;;;;;;;;;5089096;28;20450;-48
2024/01/16 01:07:36;;;;;;;3.10;1.10;;;;;;;;;;5089646;28;20924;-51
2024/01/16 01:10:02;;;;;;;2.75;1.27;;;;;;;;;;5076437;28;20398;-50
2024/01/16 01:12:29;;;;;;;3.30;1.02;;;;;;;;;;5089391;28;20394;-49
2024/01/16 01:14:54;;;;;;;4.13;1.25;;;;;;;;;;5083940;28;20509;-52
2024/01/16 01:17:20;;;;;;;4.22;1.08;;;;;;;;;;5083053;28;20401;-51
2024/01/16 01:19:46;;;;;;;3.25;1.20;;;;;;;;;;5087905;28;20401;-51
2024/01/16 01:22:12;;;;;;;2.70;1.10;;;;;;;;;;5083015;28;20877;-50
2024/01/16 01:24:38;;;;;;;2.28;1.27;;;;;;;;;;5077778;28;20413;-48
2024/01/16 01:27:06;;;;;;;3.08;1.40;;;;;;;;;;5087788;28;20406;-49
2024/01/16 01:29:32;;;;;;;2.90;1.23;;;;;;;;;;5092946;28;20402;-49
2024/01/16 01:31:58;;;;;;;3.47;1.40;;;;;;;;;;5088801;28;20424;-48
2024/01/16 01:34:24;;;;;;;3.50;1.80;;;;;;;;;;5080629;28;20401;-48
2024/01/16 01:36:50;;;;;;;3.88;1.48;;;;;;;;;;5087715;28;20409;-49
2024/01/16 01:39:16;;;;;;;2.80;1.17;;;;;;;;;;5079678;28;20403;-47
2024/01/16 01:41:41;;;;;;;1.90;1.10;;;;;;;;;;5090622;28;20470;-48
2024/01/16 01:44:15;;;;;;;4.75;1.40;;;;;;;;;;5091282;28;20406;-52
2024/01/16 01:46:41;;;;;;;6.05;1.38;;;;;;;;;;5089956;28;20738;-50
2024/01/16 01:49:07;;;;;;;2.55;1.30;;;;;;;;;;5089820;28;20489;-49
2024/01/16 01:51:34;;;;;;;4.85;1.23;;;;;;;;;;5087514;28;20481;-52
2024/01/16 01:54:01;;;;;;;2.85;1.20;;;;;;;;;;5079065;28;20529;-53
2024/01/16 01:56:27;;;;;;;4.45;1.35;;;;;;;;;;5091296;28;20858;-51
2024/01/16 01:58:54;;;;;;;2.30;1.08;;;;;;;;;;5073563;28;20383;-51
2024/01/16 02:01:22;;;;;;;2.20;1.00;;;;;;;;;;5084385;28;20397;-52
2024/01/16 02:03:53;;;;;;;3.53;1.20;;;;;;;;;;5092769;28;20463;-48
2024/01/16 02:06:19;;;;;;;2.42;1.27;;;;;;;;;;5087407;28;20406;-55
2024/01/16 02:08:45;;;;;;;3.22;1.00;;;;;;;;;;5089859;28;20397;-53
2024/01/16 02:11:12;;;;;;;3.80;1.00;;;;;;;;;;5091668;28;20390;-55
2024/01/16 02:13:37;;;;;;;1.40;0.80;;;;;;;;;;5088310;28;20843;-56
2024/01/16 02:16:05;;;;;;;2.87;1.10;;;;;;;;;;5085679;28;20398;-53
2024/01/16 02:18:31;;;;;;;2.65;1.20;;;;;;;;;;5082814;28;20399;-55
2024/01/16 02:21:01;;;;;;;2.13;1.10;;;;;;;;;;5085693;28;20875;-55
2024/01/16 02:23:28;;;;;;;3.33;1.52;;;;;;;;;;5087437;28;20445;-55
2024/01/16 02:25:54;;;;;;;2.83;1.23;;;;;;;;;;5088774;28;20424;-56
2024/01/16 02:28:20;;;;;;;2.42;1.10;;;;;;;;;;5090533;28;20406;-53
2024/01/16 02:30:46;;;;;;;1.73;1.10;;;;;;;;;;5088670;28;20759;-54
2024/01/16 02:33:12;;;;;;;3.35;1.08;;;;;;;;;;5089160;28;20471;-53
2024/01/16 02:35:39;;;;;;;3.87;1.37;;;;;;;;;;5087125;28;20382;-55
2024/01/16 02:38:05;;;;;;;4.15;1.48;;;;;;;;;;5094506;28;20376;-52
2024/01/16 02:40:31;;;;;;;5.93;1.33;;;;;;;;;;5090942;28;20875;-55
2024/01/16 02:42:57;;;;;;;3.90;1.13;;;;;;;;;;5092335;28;20913;-57
2024/01/16 02:45:22;;;;;;;1.77;1.10;;;;;;;;;;5091718;28;20410;-56
2024/01/16 02:47:49;;;;;;;2.45;1.20;;;;;;;;;;5086363;28;20396;-56
2024/01/16 02:50:15;;;;;;;4.55;1.33;;;;;;;;;;5075890;28;20382;-56
2024/01/16 02:52:41;;;;;;;3.53;1.10;;;;;;;;;;5091538;28;20378;-55
2024/01/16 02:55:07;;;;;;;3.05;1.30;;;;;;;;;;5091092;28;20393;-54
2024/01/16 02:57:33;;;;;;;5.30;1.30;;;;;;;;;;5085258;28;20860;-55
2024/01/16 02:59:59;;;;;;;2.43;1.30;;;;;;;;;;5091787;28;20386;-55
2024/01/16 03:02:25;;;;;;;3.90;1.30;;;;;;;;;;5088077;28;20401;-55
2024/01/16 03:04:51;;;;;;;3.40;1.30;;;;;;;;;;5090119;28;20413;-56
2024/01/16 03:07:17;;;;;;;4.27;1.50;;;;;;;;;;5090725;28;21179;-65
2024/01/16 03:09:43;;;;;;;2.97;1.20;;;;;;;;;;5088859;28;22506;-54
2024/01/16 03:12:09;;;;;;;1.70;1.00;;;;;;;;;;5088864;28;20390;-56
2024/01/16 03:14:36;;;;;;;3.47;1.37;;;;;;;;;;5088104;28;20430;-50
2024/01/16 03:17:02;;;;;;;2.50;1.42;;;;;;;;;;5079425;28;20384;-48
2024/01/16 03:19:28;;;;;;;2.97;1.10;;;;;;;;;;5087315;28;20874;-49
2024/01/16 03:21:54;;;;;;;4.75;1.30;;;;;;;;;;5084290;28;20385;-48
2024/01/16 03:24:20;;;;;;;3.15;1.50;;;;;;;;;;5088170;28;20429;-48
2024/01/16 03:26:46;;;;;;;3.95;1.13;;;;;;;;;;5088816;28;20763;-49
2024/01/16 03:29:12;;;;;;;2.05;0.95;;;;;;;;;;5090663;28;21228;-48
2024/01/16 03:31:38;;;;;;;3.00;1.10;;;;;;;;;;5089918;28;20398;-49
2024/01/16 03:34:04;;;;;;;3.80;1.27;;;;;;;;;;5087863;28;20443;-51
2024/01/16 03:36:30;;;;;;;3.70;1.20;;;;;;;;;;5088915;28;20405;-49
2024/01/16 03:38:56;;;;;;;4.87;1.43;;;;;;;;;;5088916;28;20473;-50
2024/01/16 03:41:22;;;;;;;3.28;1.20;;;;;;;;;;5089282;28;20881;-48
2024/01/16 03:43:48;;;;;;;3.53;1.23;;;;;;;;;;5087260;28;20382;-49
2024/01/16 03:46:14;;;;;;;4.20;1.40;;;;;;;;;;5100574;28;20473;-52
2024/01/16 03:48:40;;;;;;;2.08;1.20;;;;;;;;;;5099340;28;20371;-50
2024/01/16 03:51:06;;;;;;;2.50;1.20;;;;;;;;;;5087866;28;20435;-51
2024/01/16 03:53:32;;;;;;;3.67;1.10;;;;;;;;;;5089834;28;20402;-50
2024/01/16 03:55:58;;;;;;;2.67;1.33;;;;;;;;;;5090710;28;20378;-51
2024/01/16 03:58:24;;;;;;;3.78;1.30;;;;;;;;;;5089197;28;20918;-51
2024/01/16 04:00:51;;;;;;;3.55;1.10;;;;;;;;;;5086798;28;20407;-52
2024/01/16 04:03:17;;;;;;;4.22;1.40;;;;;;;;;;5088303;28;20402;-51
2024/01/16 04:05:43;;;;;;;5.70;1.53;;;;;;;;;;5090385;28;20409;-50
2024/01/16 04:08:09;;;;;;;3.28;1.40;;;;;;;;;;5089604;28;20398;-48
2024/01/16 04:10:35;;;;;;;4.78;1.60;;;;;;;;;;5089882;28;20410;-49
2024/01/16 04:13:02;;;;;;;3.75;1.40;;;;;;;;;;5086309;28;20394;-48
2024/01/16 04:15:28;;;;;;;3.17;1.40;;;;;;;;;;5090206;28;20386;-50
2024/01/16 04:17:54;;;;;;;3.80;1.60;;;;;;;;;;5087435;28;20394;-49
2024/01/16 04:20:21;;;;;;;4.80;1.45;;;;;;;;;;5090393;28;20386;-49
2024/01/16 04:22:46;;;;;;;3.00;1.10;;;;;;;;;;5082989;28;20749;-49
2024/01/16 04:25:13;;;;;;;2.28;0.93;;;;;;;;;;5087847;28;20409;-51
2024/01/16 04:27:39;;;;;;;2.88;0.90;;;;;;;;;;5089335;28;20397;-52
2024/01/16 04:30:05;;;;;;;4.50;1.40;;;;;;;;;;5088578;28;20401;-52
2024/01/16 04:32:31;;;;;;;3.28;1.10;;;;;;;;;;5084709;28;20412;-50
2024/01/16 04:34:57;;;;;;;3.13;1.20;;;;;;;;;;5089404;28;20406;-53
2024/01/16 04:37:23;;;;;;;2.50;1.10;;;;;;;;;;5088530;28;20521;-53
2024/01/16 04:39:49;;;;;;;2.95;1.13;;;;;;;;;;5084620;28;20484;-51
2024/01/16 04:42:17;;;;;;;2.00;1.20;;;;;;;;;;5088516;28;20389;-52
2024/01/16 04:44:43;;;;;;;1.83;1.05;;;;;;;;;;5086329;28;20405;-50
2024/01/16 04:47:09;;;;;;;2.40;1.00;;;;;;;;;;5089858;28;20378;-53
2024/01/16 04:49:35;;;;;;;3.53;1.30;;;;;;;;;;5086416;28;20471;-52
2024/01/16 04:52:01;;;;;;;1.60;1.05;;;;;;;;;;5076265;28;20871;-51
2024/01/16 04:54:27;;;;;;;2.35;1.00;;;;;;;;;;5081564;28;20808;-48
2024/01/16 04:56:53;;;;;;;2.63;1.13;;;;;;;;;;5083363;28;20394;-50
2024/01/16 04:59:19;;;;;;;3.78;1.33;;;;;;;;;;5088907;28;20385;-53
2024/01/16 05:01:45;;;;;;;3.63;1.40;;;;;;;;;;5078229;28;20414;-50
2024/01/16 05:04:11;;;;;;;2.47;1.13;;;;;;;;;;5065661;28;20410;-50
2024/01/16 05:06:37;;;;;;;2.40;1.17;;;;;;;;;;5088935;28;20382;-52
2024/01/16 05:09:03;;;;;;;6.82;1.50;;;;;;;;;;5085821;28;20405;-51
2024/01/16 05:11:29;;;;;;;3.95;1.20;;;;;;;;;;5093848;28;20392;-52
2024/01/16 05:13:57;;;;;;;3.90;1.20;;;;;;;;;;5091290;28;20440;-52
2024/01/16 05:16:27;;;;;;;2.70;1.20;;;;;;;;;;5090580;28;20968;-51
2024/01/16 05:18:53;;;;;;;3.72;1.30;;;;;;;;;;5092664;28;20373;-48
2024/01/16 05:21:19;;;;;;;4.63;3.50;;;;;;;;;;5093709;28;20389;-52
2024/01/16 05:23:45;;;;;;;3.03;1.48;;;;;;;;;;5084178;28;20473;-52
2024/01/16 05:26:12;;;;;;;2.30;1.50;;;;;;;;;;5090699;28;20433;-53
2024/01/16 05:28:40;;;;;;;3.40;1.20;;;;;;;;;;5086539;28;20420;-53
2024/01/16 05:31:07;;;;;;;4.00;1.50;;;;;;;;;;5092739;28;20401;-49
2024/01/16 05:33:33;;;;;;;4.45;1.52;;;;;;;;;;5081947;28;20767;-49
2024/01/16 05:35:59;;;;;;;5.47;1.50;;;;;;;;;;5088107;28;20402;-54
2024/01/16 05:38:25;;;;;;;3.87;1.30;;;;;;;;;;5062894;28;20763;-55
2024/01/16 05:40:51;;;;;;;1.70;1.10;;;;;;;;;;5086681;28;20406;-53
2024/01/16 05:43:17;;;;;;;3.22;1.35;;;;;;;;;;5092317;28;20402;-57
2024/01/16 05:45:43;;;;;;;2.88;1.20;;;;;;;;;;5092284;28;20401;-55
2024/01/16 05:48:10;;;;;;;3.30;1.30;;;;;;;;;;5092236;28;20381;-55
2024/01/16 05:50:37;;;;;;;2.17;1.30;;;;;;;;;;5092684;28;20375;-55
2024/01/16 05:53:03;;;;;;;2.97;1.10;;;;;;;;;;5097080;28;20380;-54
2024/01/16 05:55:32;;;;;;;3.90;1.30;;;;;;;;;;5087352;28;20428;-52
2024/01/16 05:57:59;;;;;;;2.20;1.30;;;;;;;;;;5088245;28;20378;-55
2024/01/16 06:00:25;;;;;;;1.75;1.10;;;;;;;;;;5084334;28;20390;-56
2024/01/16 06:02:51;;;;;;;1.67;1.27;;;;;;;;;;5088261;28;20385;-55
2024/01/16 06:05:17;;;;;;;3.10;1.42;;;;;;;;;;5087147;28;20427;-53
2024/01/16 06:07:43;;;;;;;3.92;1.48;;;;;;;;;;5089209;28;20401;-56
2024/01/16 06:10:09;;;;;;;3.75;1.50;;;;;;;;;;5091903;28;21097;-53
2024/01/16 06:12:35;;;;;;;3.28;1.67;;;;;;;;;;5084464;28;20402;-54
2024/01/16 06:15:01;;;;;;;3.30;1.63;;;;;;;;;;5087271;28;20424;-56
2024/01/16 06:17:27;;;;;;;3.88;1.80;;;;;;;;;;5086933;28;20392;-55
2024/01/16 06:19:53;;;;;;;5.90;1.83;;;;;;;;;;5085210;28;20428;-53
2024/01/16 06:22:19;;;;;;;3.65;1.58;;;;;;;;;;5092115;28;20375;-55
2024/01/16 06:24:45;;;;;;;2.83;1.67;;;;;;;;;;5091809;28;20532;-55
2024/01/16 06:27:14;;;;;;;5.78;3.15;;;;;;;;;;5089962;28;20799;-52
2024/01/16 06:29:39;;;;;;;4.28;2.30;;;;;;;;;;5090854;28;20387;-55
2024/01/16 06:32:05;;;;;;;3.47;1.80;;;;;;;;;;5081275;28;20826;-53
2024/01/16 06:34:31;;;;;;;4.97;1.63;;;;;;;;;;5088924;28;20739;-56
2024/01/16 06:36:57;;;;;;;4.22;2.45;;;;;;;;;;5092182;28;20378;-55
2024/01/16 06:39:23;;;;;;;4.53;1.50;;;;;;;;;;5091737;28;20397;-54
2024/01/16 06:41:49;;;;;;;5.68;1.90;;;;;;;;;;5087936;28;20880;-55
2024/01/16 06:44:15;;;;;;;4.72;1.73;;;;;;;;;;5090381;28;20397;-53
2024/01/16 06:46:41;;;;;;;5.15;2.10;;;;;;;;;;5090148;28;20899;-51
2024/01/16 06:49:07;;;;;;;4.65;1.90;;;;;;;;;;5091593;28;20393;-53
2024/01/16 06:51:33;;;;;;;3.97;1.52;;;;;;;;;;5089602;28;20370;-51
2024/01/16 06:53:59;;;;;;;3.63;1.60;;;;;;;;;;5091489;28;20412;-51
2024/01/16 06:56:26;;;;;;;5.53;1.90;;;;;;;;;;5090339;28;20398;-52
2024/01/16 06:58:52;;;;;;;2.73;1.77;;;;;;;;;;5088262;28;20898;-52
2024/01/16 07:01:18;;;;;;;2.97;1.77;;;;;;;;;;5084726;28;20401;-51
2024/01/16 07:03:44;;;;;;;4.72;2.00;;;;;;;;;;5095151;28;20978;-50
2024/01/16 07:06:11;;;;;;;4.53;2.40;;;;;;;;;;5091256;28;20416;-53
2024/01/16 07:08:37;;;;;;;6.20;2.50;;;;;;;;;;5088774;28;20394;-50
2024/01/16 07:11:07;;;;;;;4.10;2.53;;;;;;;;;;5091468;28;20382;-52
2024/01/16 07:13:34;;;;;;;5.00;3.05;;;;;;;;;;5091428;28;20441;-51
2024/01/16 07:16:00;;;;;;;6.22;3.00;;;;;;;;;;5091431;28;20439;-51
2024/01/16 07:18:27;;;;;;;3.50;2.60;;;;;;;;;;5091559;28;20390;-50
2024/01/16 07:20:53;;;;;;;7.07;3.08;;;;;;;;;;5091369;28;20481;-52
2024/01/16 07:23:19;;;;;;;4.35;2.60;;;;;;;;;;5090913;28;20388;-50
2024/01/16 07:25:45;;;;;;;4.95;2.80;;;;;;;;;;5086741;28;20443;-53
2024/01/16 07:28:12;;;;;;;5.45;2.53;;;;;;;;;;5091418;28;20382;-51
2024/01/16 07:30:37;;;;;;;7.72;2.97;;;;;;;;;;5091144;28;20855;-52
2024/01/16 07:33:04;;;;;;;7.30;3.10;;;;;;;;;;5091241;28;20371;-51
2024/01/16 07:35:30;;;;;;;5.40;2.90;;;;;;;;;;5090618;28;20870;-50
2024/01/16 07:37:56;;;;;;;5.87;3.03;;;;;;;;;;5091177;28;20459;-52
2024/01/16 07:40:23;;;;;;;6.50;3.37;;;;;;;;;;5090960;28;20409;-52
2024/01/16 07:42:49;;;;;;;6.10;2.95;;;;;;;;;;5089480;28;20455;-50
2024/01/16 07:45:15;;;;;;;7.75;3.17;;;;;;;;;;5088902;28;20402;-53
2024/01/16 07:47:41;;;;;;;6.53;3.08;;;;;;;;;;5090957;28;20389;-51
2024/01/16 07:50:07;;;;;;;5.28;2.75;;;;;;;;;;5090793;28;20402;-51
2024/01/16 07:52:33;;;;;;;5.60;3.05;;;;;;;;;;5090962;28;20379;-52
2024/01/16 07:54:59;;;;;;;6.57;3.40;;;;;;;;;;5090512;28;20401;-51
2024/01/16 07:57:25;;;;;;;8.07;3.15;;;;;;;;;;5090894;28;20410;-51
2024/01/16 07:59:51;;;;;;;8.20;3.40;;;;;;;;;;5090824;28;20385;-50
2024/01/16 08:02:17;;;;;;;5.25;3.22;;;;;;;;;;5089098;28;20398;-49
2024/01/16 08:04:43;;;;;;;6.03;3.15;;;;;;;;;;5087059;28;20399;-49
2024/01/16 08:07:09;;;;;;;4.82;2.97;;;;;;;;;;5082083;28;20932;-48
2024/01/16 08:09:35;;;;;;;4.65;2.95;;;;;;;;;;5090735;28;20738;-52
2024/01/16 08:12:02;;;;;;;4.95;3.28;;;;;;;;;;5090741;28;20362;-51
2024/01/16 08:14:29;;;;;;;6.07;3.25;;;;;;;;;;5090115;28;20794;-52
2024/01/16 08:16:54;;;;;;;6.80;3.03;;;;;;;;;;5090845;28;20409;-51
2024/01/16 08:19:20;;;;;;;8.10;3.30;;;;;;;;;;5088580;28;20406;-49
2024/01/16 08:21:47;;;;;;;5.27;3.23;;;;;;;;;;5090125;28;20414;-49
2024/01/16 08:24:13;;;;;;;6.95;3.38;;;;;;;;;;5089954;28;20381;-49
2024/01/16 08:26:39;;;;;;;5.28;3.13;;;;;;;;;;5087949;28;20398;-49
2024/01/16 08:29:05;;;;;;;6.78;3.28;;;;;;;;;;5089797;28;20382;-52
2024/01/16 08:31:31;;;;;;;6.03;3.38;;;;;;;;;;5090455;28;20378;-52
2024/01/16 08:33:57;;;;;;;6.97;3.70;;;;;;;;;;5089819;28;20381;-52
2024/01/16 08:36:23;;;;;;;6.25;3.28;;;;;;;;;;5090988;28;20370;-51
2024/01/16 08:38:49;;;;;;;5.55;3.28;;;;;;;;;;5094563;28;20469;-51
2024/01/16 08:41:15;;;;;;;5.22;3.20;;;;;;;;;;5090393;28;20394;-52
2024/01/16 08:43:41;;;;;;;5.13;3.42;;;;;;;;;;5091712;28;20490;-49
2024/01/16 08:46:07;;;;;;;6.30;3.20;;;;;;;;;;5091954;28;20421;-49
2024/01/16 08:48:33;;;;;;;5.22;3.40;;;;;;;;;;5093502;28;20457;-53
2024/01/16 08:50:59;;;;;;;5.47;3.13;;;;;;;;;;5093687;28;20385;-51
2024/01/16 08:53:25;;;;;;;6.15;3.92;;;;;;;;;;5093540;28;20393;-50
2024/01/16 08:55:51;;;;;;;7.17;3.93;;;;;;;;;;5093580;28;20465;-49
2024/01/16 08:58:17;;;;;;;6.70;3.67;;;;;;;;;;5093440;28;20389;-48
2024/01/16 09:00:43;;;;;;;8.27;4.05;;;;;;;;;;5091755;28;20398;-49
2024/01/16 09:03:09;;;;;;;8.52;4.22;;;;;;;;;;5093222;28;20374;-53
2024/01/16 09:05:38;;;;;;;8.32;4.28;;;;;;;;;;5093236;28;20412;-56
2024/01/16 09:08:04;;;;;;;9.32;4.63;;;;;;;;;;5093103;28;20397;-56
2024/01/16 09:10:30;;;;;;;8.05;4.50;;;;;;;;;;5091202;28;20410;-54
2024/01/16 09:12:56;;;;;;;8.57;4.40;;;;;;;;;;5092722;28;20410;-56
2024/01/16 09:15:22;;;;;;;7.45;4.10;;;;;;;;;;5091143;28;20955;-56
2024/01/16 09:17:48;;;;;;;9.30;4.82;;;;;;;;;;5092875;28;20490;-56
2024/01/16 09:20:14;;;;;;;6.80;4.25;;;;;;;;;;5093208;28;20378;-55
2024/01/16 09:22:40;;;;;;;7.78;4.80;;;;;;;;;;5092818;28;20408;-56
2024/01/16 09:25:06;;;;;;;8.27;4.68;;;;;;;;;;5092640;28;20413;-56
2024/01/16 09:27:32;;;;;;;8.88;4.35;;;;;;;;;;5092650;28;20866;-55
2024/01/16 09:29:58;;;;;;;8.05;4.38;;;;;;;;;;5092933;28;20874;-53
2024/01/16 09:32:24;;;;;;;6.68;4.30;;;;;;;;;;5090759;28;20406;-56
2024/01/16 09:34:50;;;;;;;6.63;4.45;;;;;;;;;;5092777;28;20978;-54
2024/01/16 09:37:16;;;;;;;6.30;4.03;;;;;;;;;;5092672;28;20449;-56
2024/01/16 09:39:42;;;;;;;6.93;4.18;;;;;;;;;;5092667;28;20393;-52
2024/01/16 09:42:08;;;;;;;6.65;3.70;;;;;;;;;;5092608;28;20867;-55
2024/01/16 09:44:34;;;;;;;6.38;3.97;;;;;;;;;;5092393;28;20405;-56
2024/01/16 09:47:01;;;;;;;5.80;3.40;;;;;;;;;;5090743;28;20406;-53
2024/01/16 09:49:28;;;;;;;5.15;3.20;;;;;;;;;;5092042;28;20724;-55
2024/01/16 09:51:53;;;;;;;6.10;3.55;;;;;;;;;;5092367;28;20465;-57
2024/01/16 09:54:19;;;;;;;6.57;3.22;;;;;;;;;;5083796;28;20431;-57
2024/01/16 09:56:48;;;;;;;4.05;2.97;;;;;;;;;;5092243;28;20378;-55
2024/01/16 09:59:18;;;;;;;5.40;3.20;;;;;;;;;;5092386;28;20450;-55
2024/01/16 10:01:44;;;;;;;3.78;2.75;;;;;;;;;;5092409;28;21170;-56
2024/01/16 10:04:10;;;;;;;4.53;3.13;;;;;;;;;;5072484;28;20897;-56
2024/01/16 10:06:38;;;;;;;5.35;2.80;;;;;;;;;;5092054;28;20969;-56
2024/01/16 10:09:04;;;;;;;7.25;2.90;;;;;;;;;;5090641;28;20511;-56
2024/01/16 10:11:30;;;;;;;4.22;2.40;;;;;;;;;;5072139;28;20430;-56
2024/01/16 10:13:58;;;;;;;6.88;2.72;;;;;;;;;;5073237;28;20402;-50
2024/01/16 10:16:44;;;;;;;6.20;2.67;;;;;;;;;;5091920;28;20470;-50
2024/01/16 10:19:10;;;;;;;6.07;2.60;;;;;;;;;;5091846;28;20396;-50
2024/01/16 10:21:36;;;;;;;9.30;2.60;;;;;;;;;;5091897;28;20469;-50
2024/01/16 10:24:12;;;;;;;5.25;2.83;;;;;;;;;;5091391;28;20444;-51
2024/01/16 10:26:38;;;;;;;7.90;2.55;;;;;;;;;;5079303;28;20410;-51
2024/01/16 10:29:08;;;;;;;5.47;2.40;;;;;;;;;;5090123;28;20765;-50
2024/01/16 10:31:34;;;;;;;5.85;2.40;;;;;;;;;;5091883;28;20867;-49
2024/01/16 10:34:00;;;;;;;10.38;2.70;;;;;;;;;;5091225;28;20378;-50
2024/01/16 10:36:26;;;;;;;4.97;2.53;;;;;;;;;;5089722;28;20841;-49
2024/01/16 10:38:57;;;;;;;4.10;2.40;;;;;;;;;;5091239;28;20416;-53
2024/01/16 10:41:27;;;;;;;6.22;2.38;;;;;;;;;;5091261;28;20374;-50
2024/01/16 10:44:07;;;;;;;5.68;2.30;;;;;;;;;;5089475;28;20879;-49
2024/01/16 10:46:33;;;;;;;5.88;2.40;;;;;;;;;;5091428;28;21231;-53
2024/01/16 10:49:03;;;;;;;5.28;2.38;;;;;;;;;;5089693;28;20394;-51
2024/01/16 10:51:29;;;;;;;5.45;2.20;;;;;;;;;;5091168;28;20871;-52
2024/01/16 10:54:07;;;;;;;7.00;2.57;;;;;;;;;;5072756;28;20382;-51
2024/01/16 10:56:34;;;;;;;5.40;2.60;;;;;;;;;;5091325;28;20381;-50
2024/01/16 10:59:19;;;;;;;4.95;2.25;;;;;;;;;;5089660;28;20396;-49
2024/01/16 11:01:48;;;;;;;7.68;2.45;;;;;;;;;;5091146;28;20533;-50
2024/01/16 11:04:14;;;;;;;12.05;2.30;;;;;;;;;;5090878;28;20439;-50
2024/01/16 11:06:42;;;;;;;7.30;2.70;;;;;;;;;;5090916;28;20398;-50
2024/01/16 11:09:08;;;;;;;4.45;2.25;;;;;;;;;;5091292;28;20806;-50
2024/01/16 11:11:37;;;;;;;7.97;2.80;;;;;;;;;;5090546;28;20378;-52
2024/01/16 11:14:03;;;;;;;8.77;2.95;;;;;;;;;;5072731;28;20467;-50
2024/01/16 11:16:32;;;;;;;11.37;2.93;;;;;;;;;;5088730;28;20436;-50
2024/01/16 11:18:58;;;;;;;8.80;3.20;;;;;;;;;;5090528;28;20380;-50
2024/01/16 11:21:25;;;;;;;8.07;3.33;;;;;;;;;;5090784;28;20855;-50
2024/01/16 11:23:51;;;;;;;7.80;3.10;;;;;;;;;;5090038;28;20382;-52
2024/01/16 11:26:27;;;;;;;8.82;3.22;;;;;;;;;;5090980;28;20405;-52
2024/01/16 11:28:56;;;;;;;8.85;3.10;;;;;;;;;;5090281;28;20805;-50
2024/01/16 11:31:34;;;;;;;7.70;3.47;;;;;;;;;;5088243;28;20370;-53
2024/01/16 11:34:01;;;;;;;7.38;3.60;;;;;;;;;;5088810;28;20406;-51
2024/01/16 11:36:51;;;;;;;11.40;4.43;;;;;;;;;;5090599;28;20370;-49
2024/01/16 11:39:21;;;;;;;9.43;3.88;;;;;;;;;;5077053;28;20727;-51
2024/01/16 11:41:54;;;;;;;11.20;4.68;;;;;;;;;;5072114;28;20378;-50
2024/01/16 11:44:38;;;;;;;10.70;4.47;;;;;;;;;;5090050;28;20732;-52
2024/01/16 11:47:05;;;;;;;7.30;4.38;;;;;;;;;;5090286;28;20412;-54
2024/01/16 11:49:34;;;;;;;10.48;4.93;;;;;;;;;;5088690;28;20426;-50
2024/01/16 11:52:00;;;;;;;12.93;5.07;;;;;;;;;;5090029;28;20439;-50
2024/01/16 11:54:26;;;;;;;9.88;4.35;;;;;;;;;;5088171;28;20914;-53
2024/01/16 11:57:11;;;;;;;10.18;4.43;;;;;;;;;;5090048;28;20373;-50
2024/01/16 11:59:59;;;;;;;10.55;4.30;;;;;;;;;;5090071;28;20461;-49
2024/01/16 12:02:47;;;;;;;14.65;4.13;;;;;;;;;;5089917;28;20864;-48
2024/01/16 12:05:14;;;;;;;10.70;4.55;;;;;;;;;;5089682;28;20402;-48
2024/01/16 12:07:49;;;;;;;11.23;4.90;;;;;;;;;;5089870;28;20396;-52
2024/01/16 12:10:15;;;;;;;8.95;4.43;;;;;;;;;;5088279;28;20429;-49
2024/01/16 12:12:41;;;;;;;12.47;4.20;;;;;;;;;;5087386;28;20408;-53
2024/01/16 12:15:07;;;;;;;11.07;4.13;;;;;;;;;;5089665;28;20467;-49
2024/01/16 12:17:33;;;;;;;8.98;3.50;;;;;;;;;;5089996;28;20392;-49
2024/01/16 12:19:59;;;;;;;9.53;3.90;;;;;;;;;;5090002;28;20374;-51
2024/01/16 12:22:25;;;;;;;8.23;3.60;;;;;;;;;;5089819;28;20966;-51
2024/01/16 12:24:56;;;;;;;9.27;3.35;;;;;;;;;;5085946;28;20494;-51
2024/01/16 12:27:22;;;;;;;12.43;3.45;;;;;;;;;;5089572;28;20449;-50
2024/01/16 12:29:51;;;;;;;7.55;4.03;;;;;;;;;;5089828;28;20803;-50
2024/01/16 12:32:18;;;;;;;11.88;4.15;;;;;;;;;;5071609;28;20410;-50
2024/01/16 12:34:45;;;;;;;9.40;3.57;;;;;;;;;;5089784;28;20469;-54
2024/01/16 12:37:12;;;;;;;9.73;3.80;;;;;;;;;;5089708;28;20863;-54
2024/01/16 12:39:39;;;;;;;10.93;3.40;;;;;;;;;;5088238;28;20966;-52
2024/01/16 12:42:05;;;;;;;8.73;3.42;;;;;;;;;;5089621;28;20965;-55
2024/01/16 12:44:34;;;;;;;9.35;3.53;;;;;;;;;;5089550;28;20844;-55
2024/01/16 12:47:01;;;;;;;6.80;3.80;;;;;;;;;;5089722;28;20378;-56
2024/01/16 12:49:27;;;;;;;9.75;3.58;;;;;;;;;;5087858;28;20377;-55
2024/01/16 12:52:13;;;;;;;11.82;3.50;;;;;;;;;;5087968;28;20551;-54
2024/01/16 12:54:40;;;;;;;10.57;3.20;;;;;;;;;;5089405;28;20468;-55
2024/01/16 12:57:06;;;;;;;12.02;3.72;;;;;;;;;;5090163;28;20363;-52
2024/01/16 12:59:32;;;;;;;9.27;3.80;;;;;;;;;;5090038;28;20463;-54
2024/01/16 13:02:00;;;;;;;10.30;3.75;;;;;;;;;;5086852;28;20515;-57
2024/01/16 13:04:26;;;;;;;13.30;4.27;;;;;;;;;;5087310;28;20753;-53
2024/01/16 13:07:01;;;;;;;9.63;3.27;;;;;;;;;;5089579;28;20409;-53
2024/01/16 13:09:27;;;;;;;7.80;3.25;;;;;;;;;;5089164;28;20461;-53
2024/01/16 13:11:58;;;;;;;13.07;3.15;;;;;;;;;;5089676;28;20378;-55
2024/01/16 13:14:24;;;;;;;8.47;2.83;;;;;;;;;;5087359;28;20751;-54
2024/01/16 13:16:51;;;;;;;6.07;3.15;;;;;;;;;;5081576;28;20458;-54
2024/01/16 13:19:17;;;;;;;9.65;3.10;;;;;;;;;;5088986;28;20736;-55
2024/01/16 13:21:43;;;;;;;9.13;3.38;;;;;;;;;;5089389;28;20377;-56
2024/01/16 13:24:09;;;;;;;10.15;3.08;;;;;;;;;;5090713;28;20371;-53
2024/01/16 13:26:37;;;;;;;10.40;3.10;;;;;;;;;;5093010;28;20653;-57
2024/01/16 13:29:03;;;;;;;9.07;2.90;;;;;;;;;;5093109;28;20367;-55
2024/01/16 13:31:29;;;;;;;11.18;3.33;;;;;;;;;;5092476;28;20440;-55
2024/01/16 13:33:58;;;;;;;14.25;3.55;;;;;;;;;;5081005;28;20512;-56
2024/01/16 13:36:24;;;;;;;8.97;3.10;;;;;;;;;;5088183;28;20410;-52
2024/01/16 13:38:51;;;;;;;12.13;3.30;;;;;;;;;;5088279;28;20416;-54
2024/01/16 13:41:17;;;;;;;9.93;3.45;;;;;;;;;;5088321;28;20382;-56
2024/01/16 13:43:43;;;;;;;9.00;3.20;;;;;;;;;;5091533;28;20758;-57
2024/01/16 13:46:10;;;;;;;9.20;3.25;;;;;;;;;;5089564;28;20464;-53
2024/01/16 13:48:36;;;;;;;8.43;3.83;;;;;;;;;;5086413;28;20437;-52
2024/01/16 13:51:04;;;;;;;9.00;3.10;;;;;;;;;;5085108;28;20441;-50
2024/01/16 13:53:30;;;;;;;6.95;2.95;;;;;;;;;;5091557;28;20804;-51
2024/01/16 13:55:58;;;;;;;10.25;3.50;;;;;;;;;;5089719;28;20382;-53
2024/01/16 13:58:23;;;;;;;9.60;2.70;;;;;;;;;;5087925;28;20701;-53
2024/01/16 14:00:51;;;;;;;9.30;3.10;;;;;;;;;;5091046;28;20405;-51
2024/01/16 14:03:17;;;;;;;8.75;3.45;;;;;;;;;;5087558;28;20794;-51
2024/01/16 14:05:43;;;;;;;9.73;3.30;;;;;;;;;;5073879;28;20402;-51
2024/01/16 14:08:12;;;;;;;12.02;3.22;;;;;;;;;;5073522;28;20382;-51
2024/01/16 14:10:38;;;;;;;6.70;2.72;;;;;;;;;;5087736;28;20384;-49
2024/01/16 14:13:04;;;;;;;8.95;3.10;;;;;;;;;;5091206;28;20434;-52
2024/01/16 14:15:31;;;;;;;8.57;3.13;;;;;;;;;;5090201;28;20378;-50
2024/01/16 14:17:57;;;;;;;6.95;3.00;;;;;;;;;;5088680;28;21231;-49
2024/01/16 14:20:25;;;;;;;9.23;3.28;;;;;;;;;;5091562;28;20392;-53
2024/01/16 14:22:52;;;;;;;8.52;3.22;;;;;;;;;;5088413;28;20374;-49
2024/01/16 14:25:21;;;;;;;8.90;3.25;;;;;;;;;;5089224;28;20417;-51
2024/01/16 14:27:57;;;;;;;10.02;3.70;;;;;;;;;;5090144;28;20867;-49
2024/01/16 14:30:25;;;;;;;9.38;3.50;;;;;;;;;;5067727;28;20547;-51
2024/01/16 14:32:51;;;;;;;7.50;3.38;;;;;;;;;;5084758;28;20482;-50
2024/01/16 14:35:17;;;;;;;7.50;3.22;;;;;;;;;;5082858;28;20903;-50
2024/01/16 14:37:43;;;;;;;9.88;3.65;;;;;;;;;;5088824;28;20395;-53
2024/01/16 14:40:25;;;;;;;9.88;3.42;;;;;;;;;;5090421;28;20473;-51